Time;durP1;ratioP1;P1;durP2;ratioP2;P2;SDS_P1;SDS_P2;PMS_P1;PMS_P2;Temp;Humidity;BMP_temperature;BMP_pressure;BME280_temperature;BME280_humidity;BME280_pressure;Samples;Min_cycle;Max_cycle;Signal;HPM_P1;HPM_P2
2022/08/21 00:02:27;;;;;;;5.65;0.50;;;25.50;41.60;;;;;;5045686;28;20099;-60
2022/08/21 00:04:55;;;;;;;4.47;0.70;;;25.50;41.70;;;;;;5047314;28;20052;-62
2022/08/21 00:07:22;;;;;;;4.65;0.50;;;25.50;41.80;;;;;;5047302;28;20577;-62
2022/08/21 00:09:49;;;;;;;2.35;0.40;;;25.50;41.80;;;;;;5047512;28;20041;-62
2022/08/21 00:12:18;;;;;;;5.05;1.38;;;25.50;41.90;;;;;;5051556;28;20072;-61
2022/08/21 00:14:45;;;;;;;4.88;1.85;;;25.40;41.90;;;;;;5060239;28;20587;-61
2022/08/21 00:17:12;;;;;;;3.13;0.20;;;25.40;42.00;;;;;;5046606;28;20219;-61
2022/08/21 00:19:40;;;;;;;2.28;0.43;;;25.40;42.10;;;;;;5047279;28;20041;-61
2022/08/21 00:22:07;;;;;;;2.88;0.65;;;25.40;42.20;;;;;;5046987;28;20114;-61
2022/08/21 00:24:34;;;;;;;3.53;0.70;;;25.30;42.20;;;;;;5047424;28;20049;-61
2022/08/21 00:27:01;;;;;;;1.67;0.82;;;25.30;42.20;;;;;;5047007;28;20421;-62
2022/08/21 00:29:30;;;;;;;3.85;0.57;;;25.30;42.30;;;;;;5045785;28;20053;-61
2022/08/21 00:31:57;;;;;;;5.85;0.52;;;25.30;42.40;;;;;;5046764;28;20471;-59
2022/08/21 00:34:24;;;;;;;3.72;0.25;;;25.30;42.40;;;;;;5049441;28;20046;-61
2022/08/21 00:36:51;;;;;;;3.33;0.52;;;25.20;42.50;;;;;;5067188;28;20048;-59
2022/08/21 00:39:18;;;;;;;3.85;0.40;;;25.20;42.60;;;;;;5067089;28;20124;-61
2022/08/21 00:41:45;;;;;;;5.82;0.38;;;25.20;42.60;;;;;;5066956;28;20068;-61
2022/08/21 00:44:15;;;;;;;2.92;0.88;;;25.20;43.30;;;;;;5061156;28;20054;-62
2022/08/21 00:46:44;;;;;;;5.63;0.60;;;25.20;42.80;;;;;;5046307;28;20069;-59
2022/08/21 00:49:12;;;;;;;2.75;0.40;;;25.10;42.80;;;;;;5057496;28;20086;-60
2022/08/21 00:51:46;;;;;;;6.95;1.40;;;25.20;42.90;;;;;;5046812;28;20103;-60
2022/08/21 00:54:15;;;;;;;7.63;0.40;;;25.20;42.90;;;;;;5046828;28;20090;-59
2022/08/21 00:56:43;;;;;;;4.18;0.50;;;25.10;42.90;;;;;;5046972;28;20067;-60
2022/08/21 00:59:11;;;;;;;2.13;0.22;;;25.10;43.00;;;;;;5046505;28;20051;-60
2022/08/21 01:01:38;;;;;;;1.83;0.85;;;25.00;43.00;;;;;;5055730;28;20075;-59
2022/08/21 01:04:06;;;;;;;2.17;0.98;;;25.10;43.20;;;;;;5046660;28;20051;-60
2022/08/21 01:06:34;;;;;;;1.42;0.22;;;25.00;43.20;;;;;;5047032;28;20511;-61
2022/08/21 01:09:02;;;;;;;6.63;1.20;;;25.00;43.30;;;;;;5046991;28;20131;-61
2022/08/21 01:11:29;;;;;;;1.38;0.20;;;25.00;43.30;;;;;;5066063;28;20062;-61
2022/08/21 01:13:56;;;;;;;5.28;0.63;;;25.00;43.40;;;;;;5069259;28;20056;-61
2022/08/21 01:16:23;;;;;;;1.33;0.20;;;24.90;43.50;;;;;;5070912;28;20489;-61
2022/08/21 01:18:51;;;;;;;1.35;0.20;;;24.90;43.60;;;;;;5051972;28;20565;-61
2022/08/21 01:21:22;;;;;;;4.18;0.30;;;25.00;43.70;;;;;;5067601;28;20080;-61
2022/08/21 01:23:53;;;;;;;1.73;0.28;;;24.90;43.70;;;;;;5053679;28;20051;-61
2022/08/21 01:26:23;;;;;;;3.20;0.30;;;24.90;43.70;;;;;;5050013;28;20041;-61
2022/08/21 01:28:55;;;;;;;2.40;0.32;;;24.90;43.80;;;;;;5050234;28;20040;-61
2022/08/21 01:31:26;;;;;;;4.10;0.63;;;24.90;43.90;;;;;;5050194;28;20048;-61
2022/08/21 01:33:54;;;;;;;3.35;0.68;;;24.90;43.90;;;;;;5031079;28;20123;-62
2022/08/21 01:36:23;;;;;;;1.48;0.50;;;24.80;44.00;;;;;;5049559;28;20128;-61
2022/08/21 01:38:50;;;;;;;5.45;1.30;;;24.80;44.10;;;;;;5050148;28;20041;-61
2022/08/21 01:41:18;;;;;;;2.80;0.38;;;24.80;44.20;;;;;;5050346;28;20430;-61
2022/08/21 01:43:45;;;;;;;4.93;0.80;;;24.80;44.30;;;;;;5049512;28;20544;-59
2022/08/21 01:46:13;;;;;;;3.70;0.20;;;24.70;44.40;;;;;;5065469;28;20048;-59
2022/08/21 01:48:40;;;;;;;6.05;0.45;;;24.70;44.50;;;;;;5054172;28;20096;-59
2022/08/21 01:51:07;;;;;;;1.23;1.05;;;24.70;44.70;;;;;;5049915;28;20051;-61
2022/08/21 01:53:37;;;;;;;3.58;0.43;;;24.60;44.70;;;;;;5054633;28;20052;-60
2022/08/21 01:56:08;;;;;;;3.33;0.30;;;24.60;44.80;;;;;;5070081;28;20040;-60
2022/08/21 01:58:35;;;;;;;2.63;0.65;;;24.60;44.90;;;;;;5067711;28;20128;-61
2022/08/21 02:01:04;;;;;;;4.00;0.35;;;24.60;45.00;;;;;;5069695;28;20053;-60
2022/08/21 02:03:31;;;;;;;3.60;0.40;;;24.50;45.00;;;;;;5052115;28;20052;-60
2022/08/21 02:05:58;;;;;;;4.95;1.17;;;24.50;45.10;;;;;;5049759;28;20087;-61
2022/08/21 02:08:26;;;;;;;6.75;0.43;;;24.50;45.20;;;;;;5049500;28;20118;-59
2022/08/21 02:10:54;;;;;;;4.22;0.68;;;24.50;45.30;;;;;;5049657;28;20089;-60
2022/08/21 02:13:21;;;;;;;2.40;1.23;;;24.40;45.30;;;;;;5049187;28;20620;-62
2022/08/21 02:15:48;;;;;;;2.67;0.40;;;24.40;45.40;;;;;;5053663;28;20047;-61
2022/08/21 02:18:15;;;;;;;6.18;0.85;;;24.40;45.60;;;;;;5049202;28;20506;-60
2022/08/21 02:20:45;;;;;;;3.80;0.55;;;24.40;46.30;;;;;;5049481;28;20040;-60
2022/08/21 02:23:13;;;;;;;4.22;1.08;;;24.30;45.70;;;;;;5049406;28;20535;-59
2022/08/21 02:25:40;;;;;;;3.90;0.47;;;24.30;45.80;;;;;;5048358;28;20064;-61
2022/08/21 02:28:11;;;;;;;2.72;0.47;;;24.30;46.00;;;;;;5048998;28;20840;-60
2022/08/21 02:30:41;;;;;;;2.05;0.80;;;24.30;46.00;;;;;;5049350;28;20130;-60
2022/08/21 02:33:10;;;;;;;10.38;0.30;;;24.20;46.10;;;;;;5058529;28;20123;-61
2022/08/21 02:35:38;;;;;;;2.33;0.93;;;24.20;46.10;;;;;;5069005;28;20049;-60
2022/08/21 02:38:07;;;;;;;3.60;0.30;;;24.20;46.20;;;;;;5063355;28;20067;-60
2022/08/21 02:40:37;;;;;;;1.90;0.60;;;24.10;46.20;;;;;;5048773;28;20048;-65
2022/08/21 02:43:06;;;;;;;4.40;0.35;;;24.10;46.30;;;;;;5049053;28;20048;-61
2022/08/21 02:45:35;;;;;;;7.80;0.63;;;24.10;46.30;;;;;;5048354;28;20419;-60
2022/08/21 02:48:04;;;;;;;3.25;0.28;;;24.10;46.40;;;;;;5051247;28;20040;-60
2022/08/21 02:50:34;;;;;;;2.00;0.57;;;24.10;46.40;;;;;;5056653;28;20048;-61
2022/08/21 02:53:02;;;;;;;5.07;0.13;;;24.00;46.40;;;;;;5048731;28;20080;-61
2022/08/21 02:55:31;;;;;;;1.75;0.30;;;24.00;46.50;;;;;;5048536;28;20041;-60
2022/08/21 02:57:59;;;;;;;1.20;1.10;;;24.00;46.50;;;;;;5048862;28;20508;-60
2022/08/21 03:00:28;;;;;;;4.70;0.60;;;24.00;46.60;;;;;;5048869;28;20417;-60
2022/08/21 03:02:58;;;;;;;3.03;0.90;;;24.00;46.70;;;;;;5048300;28;20049;-59
2022/08/21 03:05:26;;;;;;;5.85;0.93;;;23.90;46.70;;;;;;5048367;28;20071;-59
2022/08/21 03:07:53;;;;;;;5.85;0.68;;;23.90;46.70;;;;;;5048303;28;20041;-60
2022/08/21 03:10:22;;;;;;;1.33;0.75;;;23.90;46.80;;;;;;5046622;28;20403;-60
2022/08/21 03:12:50;;;;;;;2.08;0.63;;;23.90;46.80;;;;;;5064035;28;20113;-60
2022/08/21 03:15:19;;;;;;;4.28;0.52;;;23.90;46.70;;;;;;5068171;28;20041;-60
2022/08/21 03:17:47;;;;;;;4.10;0.20;;;23.90;46.70;;;;;;5068118;28;20599;-60
2022/08/21 03:20:18;;;;;;;2.65;0.20;;;23.90;46.70;;;;;;5068132;28;20044;-60
2022/08/21 03:22:45;;;;;;;3.63;0.15;;;23.90;46.60;;;;;;5061220;28;20080;-60
2022/08/21 03:25:12;;;;;;;1.05;0.20;;;23.80;46.60;;;;;;5046431;28;20468;-60
2022/08/21 03:27:39;;;;;;;6.38;0.50;;;23.80;46.60;;;;;;5047828;28;20056;-60
2022/08/21 03:30:09;;;;;;;4.68;1.27;;;23.80;46.60;;;;;;5047673;28;20047;-60
2022/08/21 03:32:36;;;;;;;2.40;0.15;;;23.80;46.60;;;;;;5047716;28;20106;-60
2022/08/21 03:35:04;;;;;;;5.57;0.45;;;23.80;46.60;;;;;;5047750;28;20045;-60
2022/08/21 03:37:33;;;;;;;0.93;0.13;;;23.70;46.60;;;;;;5047554;28;20049;-60
2022/08/21 03:40:00;;;;;;;1.30;0.10;;;23.80;46.80;;;;;;5047724;28;20049;-60
2022/08/21 03:42:27;;;;;;;5.25;0.40;;;23.70;46.80;;;;;;5047812;28;20088;-60
2022/08/21 03:44:54;;;;;;;5.35;0.25;;;23.70;46.90;;;;;;5047507;28;20075;-59
2022/08/21 03:47:21;;;;;;;3.60;0.30;;;23.70;47.00;;;;;;5047519;28;20037;-60
2022/08/21 03:49:49;;;;;;;5.80;0.60;;;23.70;47.00;;;;;;5046628;28;20049;-60
2022/08/21 03:52:16;;;;;;;1.25;0.20;;;23.70;47.10;;;;;;5067603;28;20128;-60
2022/08/21 03:54:45;;;;;;;5.00;0.60;;;23.70;47.10;;;;;;5060103;28;20049;-60
2022/08/21 03:57:12;;;;;;;2.35;0.20;;;23.70;47.20;;;;;;5047598;28;20063;-60
2022/08/21 03:59:39;;;;;;;6.47;0.30;;;23.70;47.30;;;;;;5049651;28;20048;-59
2022/08/21 04:02:08;;;;;;;7.53;0.20;;;23.70;47.30;;;;;;5047073;28;20037;-60
2022/08/21 04:04:36;;;;;;;4.15;0.63;;;23.70;47.30;;;;;;5047473;28;20517;-60
2022/08/21 04:07:04;;;;;;;1.80;0.20;;;23.60;47.30;;;;;;5047022;28;20579;-59
2022/08/21 04:09:31;;;;;;;4.15;0.68;;;23.60;47.40;;;;;;5047169;28;20052;-60
2022/08/21 04:12:01;;;;;;;3.20;0.50;;;23.60;47.40;;;;;;5065324;28;20123;-59
2022/08/21 04:14:28;;;;;;;5.50;0.68;;;23.60;47.40;;;;;;5067373;28;20040;-59
2022/08/21 04:16:55;;;;;;;4.70;0.30;;;23.60;47.50;;;;;;5048650;28;20823;-59
2022/08/21 04:19:23;;;;;;;4.05;0.95;;;23.60;47.50;;;;;;5047121;28;20041;-60
2022/08/21 04:21:50;;;;;;;1.13;0.20;;;23.60;47.50;;;;;;5063543;28;20514;-60
2022/08/21 04:24:17;;;;;;;8.23;0.50;;;23.60;47.60;;;;;;5067017;28;20040;-60
2022/08/21 04:26:44;;;;;;;2.75;0.28;;;23.50;47.60;;;;;;5067594;28;20086;-61
2022/08/21 04:29:12;;;;;;;4.70;0.43;;;23.50;47.70;;;;;;5067191;28;20047;-61
2022/08/21 04:31:39;;;;;;;13.10;1.73;;;23.50;47.80;;;;;;5051403;28;20222;-61
2022/08/21 04:34:06;;;;;;;4.85;1.08;;;23.50;47.90;;;;;;5047094;28;20052;-60
2022/08/21 04:36:34;;;;;;;8.57;0.68;;;23.50;47.90;;;;;;5045230;28;20049;-61
2022/08/21 04:39:01;;;;;;;3.55;0.17;;;23.40;48.00;;;;;;5047403;28;20045;-62
2022/08/21 04:41:28;;;;;;;0.93;0.30;;;23.40;48.10;;;;;;5049289;28;20090;-61
2022/08/21 04:43:56;;;;;;;9.40;0.55;;;23.40;48.20;;;;;;5047268;28;20049;-61
2022/08/21 04:46:25;;;;;;;5.25;0.90;;;23.40;48.20;;;;;;5036275;28;20129;-60
2022/08/21 04:48:52;;;;;;;7.07;0.63;;;23.40;48.20;;;;;;5045566;28;20128;-60
2022/08/21 04:51:22;;;;;;;2.33;0.20;;;23.40;48.30;;;;;;5050287;28;20068;-60
2022/08/21 04:53:53;;;;;;;4.65;0.40;;;23.30;48.30;;;;;;5050695;28;20134;-60
2022/08/21 04:56:23;;;;;;;1.63;0.40;;;23.30;48.40;;;;;;5049180;28;20102;-65
2022/08/21 04:58:52;;;;;;;7.22;0.47;;;23.30;48.50;;;;;;5065926;28;20045;-67
2022/08/21 05:01:22;;;;;;;4.15;0.52;;;23.30;48.50;;;;;;5049798;28;20041;-69
2022/08/21 05:03:53;;;;;;;2.20;0.20;;;23.30;48.50;;;;;;5069633;28;20044;-62
2022/08/21 05:06:21;;;;;;;3.35;0.20;;;23.30;48.60;;;;;;5050813;28;20037;-63
2022/08/21 05:08:50;;;;;;;5.18;1.23;;;23.30;48.70;;;;;;5051226;28;20129;-55
2022/08/21 05:11:17;;;;;;;4.38;1.17;;;23.30;48.80;;;;;;5050057;28;20123;-55
2022/08/21 05:13:45;;;;;;;1.98;0.25;;;23.30;48.80;;;;;;5050490;28;20044;-62
2022/08/21 05:16:12;;;;;;;3.50;0.40;;;23.30;48.90;;;;;;5050062;28;20040;-61
2022/08/21 05:18:40;;;;;;;3.83;0.30;;;23.30;48.90;;;;;;5051662;28;20045;-60
2022/08/21 05:21:09;;;;;;;3.00;1.52;;;23.30;48.90;;;;;;5049684;28;20125;-51
2022/08/21 05:23:36;;;;;;;1.27;0.70;;;23.30;48.80;;;;;;5050017;28;20041;-58
2022/08/21 05:26:04;;;;;;;1.63;0.35;;;23.40;49.20;;;;;;5052405;28;20046;-54
2022/08/21 05:28:32;;;;;;;2.83;0.93;;;23.40;49.30;;;;;;5046471;28;20041;-58
2022/08/21 05:30:59;;;;;;;20.90;1.30;;;23.50;49.40;;;;;;5049520;28;20061;-52
2022/08/21 05:33:26;;;;;;;7.10;0.63;;;23.60;49.40;;;;;;5049241;28;20047;-48
2022/08/21 05:35:55;;;;;;;0.88;0.25;;;23.60;49.30;;;;;;5056698;28;20048;-52
2022/08/21 05:38:24;;;;;;;6.15;0.60;;;23.70;49.30;;;;;;5056442;28;20409;-50
2022/08/21 05:40:51;;;;;;;2.80;0.73;;;23.70;49.10;;;;;;5058830;28;20378;-49
2022/08/21 05:43:18;;;;;;;0.68;0.20;;;23.80;49.00;;;;;;5050319;28;20044;-49
2022/08/21 05:45:45;;;;;;;2.88;0.55;;;23.90;48.90;;;;;;5055805;28;20052;-52
2022/08/21 05:48:15;;;;;;;3.85;0.20;;;23.90;48.80;;;;;;5059668;28;20404;-49
2022/08/21 05:50:43;;;;;;;4.03;0.90;;;24.00;48.70;;;;;;5049746;28;20140;-49
2022/08/21 05:53:10;;;;;;;1.45;0.10;;;24.00;48.50;;;;;;5048397;28;20153;-49
2022/08/21 05:55:39;;;;;;;2.35;0.38;;;24.10;48.50;;;;;;5054466;28;20067;-50
2022/08/21 05:58:06;;;;;;;1.95;0.10;;;24.10;48.30;;;;;;5069991;28;20049;-48
2022/08/21 06:00:33;;;;;;;7.68;0.50;;;24.20;48.20;;;;;;5063666;28;20049;-50
2022/08/21 06:03:01;;;;;;;1.13;0.30;;;24.20;48.10;;;;;;5048063;28;20418;-50
2022/08/21 06:05:28;;;;;;;1.30;0.20;;;24.20;48.00;;;;;;5049596;28;20544;-52
2022/08/21 06:07:55;;;;;;;1.90;0.40;;;24.30;47.80;;;;;;5049503;28;20045;-51
2022/08/21 06:10:22;;;;;;;0.80;0.13;;;24.30;47.70;;;;;;5057310;28;20417;-52
2022/08/21 06:12:55;;;;;;;2.30;0.20;;;24.40;48.00;;;;;;5069535;28;20126;-51
2022/08/21 06:15:22;;;;;;;1.42;0.10;;;24.40;47.50;;;;;;5068152;28;20048;-50
2022/08/21 06:17:49;;;;;;;4.05;0.30;;;24.40;47.50;;;;;;5069332;28;20222;-49
2022/08/21 06:20:17;;;;;;;1.33;0.32;;;24.50;47.40;;;;;;5068251;28;20469;-52
2022/08/21 06:22:44;;;;;;;2.55;0.70;;;24.50;47.30;;;;;;5069261;28;20492;-50
2022/08/21 06:25:11;;;;;;;2.00;0.52;;;24.60;47.20;;;;;;5069321;28;20079;-51
2022/08/21 06:27:38;;;;;;;2.25;0.10;;;24.60;47.10;;;;;;5067820;28;20091;-54
2022/08/21 06:30:08;;;;;;;1.17;0.20;;;24.70;47.10;;;;;;5042456;28;20122;-48
2022/08/21 06:32:36;;;;;;;2.08;0.10;;;24.70;47.00;;;;;;5058905;28;20057;-49
2022/08/21 06:35:03;;;;;;;2.17;0.10;;;24.70;46.90;;;;;;5049104;28;20044;-50
2022/08/21 06:37:31;;;;;;;1.75;0.20;;;24.80;46.80;;;;;;5048926;28;20091;-50
2022/08/21 06:39:58;;;;;;;2.53;0.20;;;24.80;46.70;;;;;;5048941;28;20055;-50
2022/08/21 06:42:27;;;;;;;2.33;0.35;;;24.90;46.70;;;;;;5049049;28;20531;-51
2022/08/21 06:44:54;;;;;;;2.05;0.10;;;24.90;46.50;;;;;;5048966;28;20064;-50
2022/08/21 06:47:22;;;;;;;2.03;0.10;;;25.00;46.50;;;;;;5066158;28;20044;-50
2022/08/21 06:49:49;;;;;;;1.98;0.40;;;25.00;46.30;;;;;;5065554;28;20028;-49
2022/08/21 06:52:17;;;;;;;2.13;0.30;;;25.10;46.30;;;;;;5066680;28;20087;-52
2022/08/21 06:54:44;;;;;;;1.65;0.50;;;25.10;46.20;;;;;;5048933;28;20080;-51
2022/08/21 06:57:11;;;;;;;2.10;0.22;;;25.10;46.10;;;;;;5048540;28;20064;-49
2022/08/21 06:59:38;;;;;;;3.75;0.30;;;25.20;46.10;;;;;;5048682;28;20037;-51
2022/08/21 07:02:05;;;;;;;6.45;0.77;;;25.30;46.00;;;;;;5047921;28;20049;-50
2022/08/21 07:04:34;;;;;;;0.70;0.30;;;25.30;45.90;;;;;;5048273;28;20509;-52
2022/08/21 07:07:01;;;;;;;3.95;0.15;;;25.30;45.90;;;;;;5048428;28;20045;-51
2022/08/21 07:09:28;;;;;;;1.83;0.22;;;25.30;45.80;;;;;;5048623;28;20110;-50
2022/08/21 07:11:56;;;;;;;0.85;0.20;;;25.40;45.70;;;;;;5047836;28;20084;-52
2022/08/21 07:14:23;;;;;;;3.90;0.15;;;25.40;45.60;;;;;;5048368;28;20040;-50
2022/08/21 07:16:51;;;;;;;1.92;0.15;;;25.40;45.50;;;;;;5047924;28;20068;-49
2022/08/21 07:19:18;;;;;;;1.60;0.20;;;25.50;45.60;;;;;;5048123;28;20041;-51
2022/08/21 07:21:47;;;;;;;3.65;0.60;;;25.50;45.40;;;;;;5046475;28;20597;-48
2022/08/21 07:24:14;;;;;;;2.00;0.40;;;25.50;45.30;;;;;;5050902;28;20041;-50
2022/08/21 07:26:41;;;;;;;0.82;0.20;;;25.60;45.40;;;;;;5055713;28;20040;-50
2022/08/21 07:29:09;;;;;;;1.30;0.25;;;25.60;45.20;;;;;;5047998;28;20111;-51
2022/08/21 07:31:36;;;;;;;1.95;0.40;;;25.60;45.20;;;;;;5047491;28;20771;-49
2022/08/21 07:34:03;;;;;;;0.75;0.17;;;25.60;45.10;;;;;;5048138;28;20078;-53
2022/08/21 07:36:30;;;;;;;0.85;0.10;;;25.70;45.10;;;;;;5047876;28;20060;-52
2022/08/21 07:38:58;;;;;;;2.65;0.30;;;25.70;45.00;;;;;;5048014;28;20041;-50
2022/08/21 07:41:28;;;;;;;1.52;0.10;;;25.70;45.00;;;;;;5047961;28;20081;-49
2022/08/21 07:43:57;;;;;;;3.50;0.40;;;25.80;45.00;;;;;;5047811;28;20390;-47
2022/08/21 07:46:24;;;;;;;3.65;0.40;;;25.80;44.90;;;;;;5047071;28;20040;-48
2022/08/21 07:48:51;;;;;;;2.72;0.28;;;25.90;44.90;;;;;;5055308;28;20049;-49
2022/08/21 07:51:24;;;;;;;3.80;0.30;;;25.90;44.80;;;;;;5049081;28;20049;-50
2022/08/21 07:53:53;;;;;;;0.68;0.68;;;26.00;44.80;;;;;;5047693;28;20077;-48
2022/08/21 07:56:22;;;;;;;1.77;0.17;;;26.00;44.70;;;;;;5047382;28;20037;-50
2022/08/21 07:58:49;;;;;;;1.27;0.28;;;26.00;44.60;;;;;;5047523;28;20128;-47
2022/08/21 08:01:16;;;;;;;1.83;0.25;;;26.10;44.60;;;;;;5054438;28;20510;-51
2022/08/21 08:03:43;;;;;;;2.60;0.55;;;26.10;44.50;;;;;;5048122;28;20056;-47
2022/08/21 08:06:12;;;;;;;2.78;0.57;;;26.10;44.50;;;;;;5047583;28;20124;-48
2022/08/21 08:08:40;;;;;;;2.53;0.80;;;26.20;44.40;;;;;;5045874;28;20469;-49
2022/08/21 08:11:10;;;;;;;0.50;0.20;;;26.20;44.40;;;;;;5048827;28;20045;-51
2022/08/21 08:13:41;;;;;;;0.90;0.30;;;26.20;44.30;;;;;;5048504;28;20044;-53
2022/08/21 08:16:09;;;;;;;1.63;0.20;;;26.20;44.20;;;;;;5048619;28;20102;-51
2022/08/21 08:18:36;;;;;;;0.50;0.13;;;26.30;44.20;;;;;;5054269;28;20046;-51
2022/08/21 08:21:03;;;;;;;3.15;0.73;;;26.30;44.70;;;;;;5062057;28;20033;-55
2022/08/21 08:23:30;;;;;;;2.20;0.50;;;26.30;44.00;;;;;;5046670;28;20123;-52
2022/08/21 08:25:57;;;;;;;1.85;0.20;;;26.40;44.00;;;;;;5047572;28;20049;-52
2022/08/21 08:28:26;;;;;;;0.60;0.10;;;26.40;44.00;;;;;;5047321;28;20039;-50
2022/08/21 08:30:54;;;;;;;0.73;0.20;;;26.40;43.80;;;;;;5045674;28;20045;-49
2022/08/21 08:33:22;;;;;;;2.58;0.40;;;26.50;43.80;;;;;;5045712;28;20068;-51
2022/08/21 08:35:51;;;;;;;2.42;0.30;;;26.50;43.80;;;;;;5046888;28;20413;-50
2022/08/21 08:38:19;;;;;;;2.03;0.63;;;26.50;43.80;;;;;;5045892;28;20051;-49
2022/08/21 08:40:52;;;;;;;1.60;0.10;;;26.60;43.70;;;;;;5053209;28;20217;-48
2022/08/21 08:43:20;;;;;;;2.17;0.10;;;26.60;43.60;;;;;;5066560;28;20064;-49
2022/08/21 08:45:51;;;;;;;1.15;0.20;;;26.60;43.60;;;;;;5066825;28;20136;-49
2022/08/21 08:48:34;;;;;;;0.55;0.20;;;26.70;43.50;;;;;;5063420;28;20119;-52
2022/08/21 08:51:03;;;;;;;2.00;0.13;;;26.70;43.40;;;;;;5050817;28;20045;-49
2022/08/21 08:53:34;;;;;;;0.52;0.20;;;26.70;43.40;;;;;;5045495;28;20037;-50
2022/08/21 08:56:03;;;;;;;1.15;0.20;;;26.70;43.40;;;;;;5047164;28;20044;-50
2022/08/21 08:58:33;;;;;;;1.63;0.55;;;26.70;43.30;;;;;;5046305;28;20041;-49
2022/08/21 09:01:01;;;;;;;0.68;0.20;;;26.80;43.90;;;;;;5046813;28;20041;-52
2022/08/21 09:03:29;;;;;;;0.82;0.20;;;26.80;43.20;;;;;;5046704;28;20041;-53
2022/08/21 09:06:01;;;;;;;4.38;0.10;;;26.80;43.20;;;;;;5047047;28;20044;-52
2022/08/21 09:08:51;;;;;;;0.60;0.10;;;26.80;43.10;;;;;;5046579;28;20247;-50
2022/08/21 09:11:27;;;;;;;0.88;0.30;;;26.90;43.10;;;;;;5047106;28;20107;-53
2022/08/21 09:14:04;;;;;;;0.68;0.20;;;26.90;43.00;;;;;;5044874;28;20152;-52
2022/08/21 09:16:47;;;;;;;0.82;0.13;;;26.90;43.00;;;;;;5046956;28;20065;-51
2022/08/21 09:19:28;;;;;;;2.63;0.32;;;26.90;42.90;;;;;;5047034;28;20129;-52
2022/08/21 09:22:09;;;;;;;3.90;0.45;;;27.00;43.00;;;;;;5047090;28;20045;-53
2022/08/21 09:24:48;;;;;;;3.42;0.40;;;27.00;43.00;;;;;;5027010;28;20472;-50
2022/08/21 09:27:16;;;;;;;4.90;0.55;;;27.00;43.00;;;;;;5055027;28;20119;-51
2022/08/21 09:29:47;;;;;;;3.47;0.50;;;27.00;43.50;;;;;;5066866;28;20064;-53
2022/08/21 09:32:18;;;;;;;0.85;0.20;;;27.00;42.80;;;;;;5060162;28;20072;-53
2022/08/21 09:34:57;;;;;;;2.17;0.40;;;27.00;42.80;;;;;;5048934;28;20056;-52
2022/08/21 09:37:25;;;;;;;3.10;0.20;;;27.10;42.80;;;;;;5064922;28;20132;-52
2022/08/21 09:39:52;;;;;;;3.05;0.50;;;27.10;42.80;;;;;;5070307;28;20041;-50
2022/08/21 09:42:25;;;;;;;1.55;0.35;;;27.10;42.70;;;;;;5068598;28;20100;-52
2022/08/21 09:45:09;;;;;;;2.60;0.47;;;27.10;42.60;;;;;;5069786;28;20136;-52
2022/08/21 09:47:37;;;;;;;1.70;0.40;;;27.10;42.60;;;;;;5052482;28;20065;-48
2022/08/21 09:50:18;;;;;;;2.05;0.50;;;27.10;42.60;;;;;;5059330;28;20049;-50
2022/08/21 09:52:48;;;;;;;1.55;0.40;;;27.20;42.60;;;;;;5049751;28;20069;-50
2022/08/21 09:58:10;;;;;;;2.38;0.20;;;27.20;42.50;;;;;;5030110;28;20049;-49
2022/08/21 10:00:37;;;;;;;2.17;0.20;;;27.20;42.50;;;;;;5029994;28;20594;-53
2022/08/21 10:03:13;;;;;;;0.95;0.40;;;27.20;42.50;;;;;;5043447;28;20087;-51
2022/08/21 10:05:53;;;;;;;0.82;0.22;;;27.30;42.50;;;;;;5049777;28;20049;-53
2022/08/21 10:08:21;;;;;;;2.15;0.20;;;27.30;42.40;;;;;;5049656;28;20132;-48
2022/08/21 10:10:53;;;;;;;1.48;0.88;;;27.30;42.50;;;;;;5049725;28;20099;-51
2022/08/21 10:13:26;;;;;;;1.48;0.10;;;27.30;42.40;;;;;;5049688;28;20128;-52
2022/08/21 10:16:05;;;;;;;0.82;0.15;;;27.40;42.50;;;;;;5047964;28;20613;-54
2022/08/21 10:18:39;;;;;;;1.63;1.15;;;27.40;42.40;;;;;;5049300;28;20065;-49
2022/08/21 10:21:16;;;;;;;0.57;0.28;;;27.40;42.30;;;;;;5049709;28;20075;-54
2022/08/21 10:24:04;;;;;;;0.75;0.25;;;27.40;42.30;;;;;;5049416;28;20075;-52
2022/08/21 10:26:45;;;;;;;1.38;0.45;;;27.40;42.80;;;;;;5049137;28;20067;-48
2022/08/21 10:29:21;;;;;;;2.35;0.68;;;27.40;42.20;;;;;;5049443;28;20115;-50
2022/08/21 10:31:59;;;;;;;0.52;0.40;;;27.40;42.20;;;;;;5047955;28;20555;-49
2022/08/21 10:34:37;;;;;;;2.83;0.55;;;27.40;42.20;;;;;;5047699;28;20059;-48
2022/08/21 10:37:20;;;;;;;3.08;0.30;;;27.50;42.20;;;;;;5049071;28;20045;-48
2022/08/21 10:40:02;;;;;;;5.45;0.40;;;27.50;42.10;;;;;;5053881;28;20464;-49
2022/08/21 10:42:36;;;;;;;1.25;0.35;;;27.50;42.10;;;;;;5069111;28;20094;-52
2022/08/21 10:45:16;;;;;;;2.05;0.20;;;27.50;42.00;;;;;;5068174;28;20854;-50
2022/08/21 10:47:48;;;;;;;4.88;0.52;;;27.50;42.10;;;;;;5068867;28;20102;-48
2022/08/21 10:50:25;;;;;;;2.25;0.73;;;27.50;42.00;;;;;;5058739;28;20052;-50
2022/08/21 10:53:06;;;;;;;2.25;0.45;;;27.60;42.00;;;;;;5048936;28;20045;-51
2022/08/21 10:55:37;;;;;;;2.28;0.52;;;27.60;42.00;;;;;;5048462;28;20126;-51
2022/08/21 10:58:10;;;;;;;2.47;0.20;;;27.60;42.00;;;;;;5048990;28;20053;-50
2022/08/21 11:00:44;;;;;;;1.58;0.10;;;27.60;42.10;;;;;;5047493;28;20116;-50
2022/08/21 11:03:17;;;;;;;2.38;0.30;;;27.60;42.00;;;;;;5046954;28;20138;-50
2022/08/21 11:05:49;;;;;;;0.95;0.30;;;27.60;42.00;;;;;;5048602;28;20040;-48
2022/08/21 11:08:23;;;;;;;1.00;0.20;;;27.70;42.00;;;;;;5048196;28;20387;-49
2022/08/21 11:10:55;;;;;;;1.00;0.30;;;27.70;42.00;;;;;;5048622;28;20053;-47
2022/08/21 11:13:32;;;;;;;0.40;0.20;;;27.70;41.90;;;;;;5048633;28;20045;-48
2022/08/21 11:16:06;;;;;;;0.82;0.63;;;27.70;41.90;;;;;;5048613;28;20706;-48
2022/08/21 11:18:38;;;;;;;0.75;0.35;;;27.70;41.80;;;;;;5056419;28;20132;-48
2022/08/21 11:21:20;;;;;;;3.13;0.20;;;27.70;41.80;;;;;;5064910;28;20049;-52
2022/08/21 11:23:55;;;;;;;2.55;0.20;;;27.70;41.70;;;;;;5048622;28;20037;-54
2022/08/21 11:26:31;;;;;;;2.45;0.20;;;27.80;41.80;;;;;;5047048;28;20041;-54
2022/08/21 11:29:05;;;;;;;0.98;0.10;;;27.80;41.80;;;;;;5048436;28;20048;-53
2022/08/21 11:31:43;;;;;;;0.60;0.28;;;27.80;41.70;;;;;;5047952;28;20044;-53
2022/08/21 11:34:22;;;;;;;2.85;0.40;;;27.80;41.80;;;;;;5048061;28;20128;-52
2022/08/21 11:36:59;;;;;;;0.38;0.10;;;27.80;41.70;;;;;;5055157;28;20131;-52
2022/08/21 11:39:39;;;;;;;1.80;0.30;;;27.80;41.70;;;;;;5068160;28;20135;-50
2022/08/21 11:42:16;;;;;;;1.00;0.28;;;27.90;41.70;;;;;;5068028;28;20042;-48
2022/08/21 11:44:54;;;;;;;0.60;0.10;;;27.80;41.60;;;;;;5067957;28;20702;-50
2022/08/21 11:47:31;;;;;;;3.42;0.50;;;27.90;41.60;;;;;;5067710;28;20045;-50
2022/08/21 11:50:10;;;;;;;1.30;0.10;;;27.90;41.60;;;;;;5060130;28;20049;-50
2022/08/21 11:52:49;;;;;;;0.77;0.40;;;27.90;41.60;;;;;;5047539;28;20072;-50
2022/08/21 11:55:24;;;;;;;3.22;0.82;;;27.90;41.50;;;;;;5047529;28;20136;-50
2022/08/21 11:57:55;;;;;;;2.60;0.50;;;27.90;41.50;;;;;;5047553;28;20087;-53
2022/08/21 12:00:27;;;;;;;0.40;0.20;;;28.00;41.50;;;;;;5047949;28;20494;-52
2022/08/21 12:02:57;;;;;;;1.10;0.20;;;28.00;41.50;;;;;;5047558;28;20037;-54
2022/08/21 12:05:28;;;;;;;0.75;0.20;;;28.00;41.50;;;;;;5047613;28;20048;-55
2022/08/21 12:08:06;;;;;;;0.47;0.20;;;28.00;41.40;;;;;;5047213;28;20036;-50
2022/08/21 12:10:39;;;;;;;0.40;0.40;;;28.10;41.40;;;;;;5047634;28;20053;-49
2022/08/21 12:13:11;;;;;;;0.22;0.20;;;28.10;41.50;;;;;;5047396;28;20029;-51
2022/08/21 12:15:38;;;;;;;1.08;0.20;;;28.00;41.30;;;;;;5047427;28;20107;-52
2022/08/21 12:18:25;;;;;;;0.95;0.20;;;28.10;41.40;;;;;;5047490;28;20044;-53
2022/08/21 12:21:05;;;;;;;1.55;0.40;;;28.10;41.30;;;;;;5047197;28;20049;-54
2022/08/21 12:23:44;;;;;;;0.35;0.15;;;28.10;41.30;;;;;;5047448;28;20041;-54
2022/08/21 12:26:24;;;;;;;0.45;0.25;;;28.10;41.30;;;;;;5047503;28;20045;-51
2022/08/21 12:28:52;;;;;;;0.68;0.20;;;28.20;41.40;;;;;;5047530;28;20049;-53
2022/08/21 12:31:28;;;;;;;2.47;0.20;;;28.20;41.40;;;;;;5047492;28;20546;-52
2022/08/21 12:34:00;;;;;;;0.10;0.10;;;28.30;41.40;;;;;;5027403;28;20084;-50
2022/08/21 12:36:39;;;;;;;0.65;0.10;;;28.30;41.40;;;;;;5026972;28;20136;-52
2022/08/21 12:39:13;;;;;;;0.20;0.10;;;28.30;41.40;;;;;;5027417;28;20498;-52
2022/08/21 12:41:49;;;;;;;1.98;0.20;;;28.30;41.30;;;;;;5032462;28;20047;-53
2022/08/21 12:44:17;;;;;;;;;;;28.30;41.30;;;;;;5046478;28;20728;-53
2022/08/21 12:46:51;;;;;;;0.40;0.10;;;28.30;41.30;;;;;;5048050;28;19931;-53
2022/08/21 12:49:28;;;;;;;0.85;0.10;;;28.30;41.40;;;;;;5033751;28;20095;-54
2022/08/21 12:51:58;;;;;;;1.90;0.10;;;28.40;41.40;;;;;;5047153;28;20041;-52
2022/08/21 12:54:29;;;;;;;0.82;0.10;;;28.40;41.30;;;;;;5047235;28;20103;-49
2022/08/21 12:57:00;;;;;;;0.10;0.10;;;28.40;41.30;;;;;;5046816;28;20049;-49
2022/08/21 12:59:27;;;;;;;0.20;0.20;;;28.40;41.20;;;;;;5047381;28;20041;-49
2022/08/21 13:01:56;;;;;;;0.65;0.10;;;28.40;41.20;;;;;;5046919;28;20041;-50
2022/08/21 13:04:36;;;;;;;0.10;0.10;;;28.40;41.20;;;;;;5046505;28;20055;-51
2022/08/21 13:07:10;;;;;;;0.63;0.10;;;28.40;41.10;;;;;;5047028;28;20140;-52